Archival Weather

Chicago O'Hare International

Chicago, Illinois (KORD)

Report from: Thursday, March 21, 2024 5:51 AM CDT
Current time: Tuesday, May 21, 2024 11:59 AM CDT

Current weather – Weather history – Daily summaries
Weather forecast

Temperature-2.2°C (28.0°F)
Dew point-7.2°C (19.0°F)
Winds Calm
Visibility10 mi. (16.1 km)
Clouds Few clouds 3,700 ft. (1,128 m)
Scattered clouds 10,000 ft. (3,048 m)
Altimeter30.25 in.Hg (1024 mB)
Relative humidity69 %
Density altitude-2,458 ft. (-749 m)
Sea-level pressure102.5 kPa (1025 mB, 30.27 in.Hg)
Remarks System requires maintenance
Automated weather observing station with precipitation discriminator
Flight conditions Visual Meteorological Conditions
Raw dataKORD 211051Z 00000KT 10SM FEW037 SCT100 M02/M07 A3025 RMK AO2 SLP251 T10221072 $
An error has occurred. This application may no longer respond until reloaded. Reload 🗙